Airport Name : Camilo Daza

Other Name : Cucuta

ICAO : SKCC

IATA : CUC

FAA :

Latitude : 7.927567

Longitude : -72.511547

Country : Colombia

Local Date and Time : 10/15/2018 3:53:00 PM

 

TAF (Terminal Aerodrome Forecast)

TAF SKCC 151700Z 1518/1618 36010KT 9999 FEW020 SCT100 TEMPO 1607/1614 16012KT TX31/1519Z TN22/1611Z

 

METAR (METeorological Aerodrome Report)

SKCC 152000Z 36004KT 330V030 9999 SCT023 31/22 A2982

SKCC 151900Z 34006KT 320V030 9999 SCT023 31/21 A2984

SKCC 151800Z 01006KT 9999 SCT023 31/21 A2988

SKCC 151700Z 02004KT 300V060 9999 FEW020 30/20 A2992